Flugplatz Nabern/Teck

EDTN · 巴登-符腾堡, 德国

罗盘
风向 的 风向 360° Nabern/Teck Airport 14/32
风: 8 kt, 3 beaufort

6 kt

6 kt
改变
0 ft 1.000 2.000 3.000 4.000 5.000
Cloud Cloud Cloud Cloud Cloud Cloud Cloud Cloud
OVC 1.000
METAR EDDS 271450Z AUTO 36008KT 9999 OVC010 M01/M03 Q1020 TEMPO OVC009

METAR Nabern/Teck Airport - EDTN

Nabern/Teck Airport是,德国中的小机场。 该机场有一条跑道: 14/32. 该领域的国际民航组织标志是EDTN.

这份报告是针对2023年1月27日 15:50, 当地时间在Stuttgart Airport进行的。

机场观察

风向为360°,速度为8 kt。

可见度为10 km 或者更多。

有乌云密布在1.000 ft的高度。 破损或更高的上限为1.000 ft。

温度为-1 °C,阵风为-8 °C。 露点为-3 °C,相对湿度为86%。 海平面上的气压为1020 hPa (QNH)。

发展趋势

  • 暂时的

    可变方向的风很小或没有。 乌云密布在900 ft的高度.

白天

今天,太阳从07:57升起,在17:11降落。 这适用于Nabern/Teck Airport,世界夏令时可能有所不同。 当地时间与世界标准时间之间的时差为+1 小时。 当前,没有夏令时有效。

公司介绍

我们没有关于这个机场的公司信息。

体会

到Vliegles.nl去找飞行课程,跳伞和其他飞行体验。 浏览页面,了解Nabern/Teck Airport附近所有可用的活动。 你也可以使用搜索功能来寻找你所在地附近的特定飞行课程、跳伞或其他飞行体验。

跑道

Id 标题 侧风 逆风 侧风 %
14/32 135°-315° 6 kt 6 kt 71 %

逆风成分最大的方向会被突出显示,并用于横风计算。 这并不一定意味着这个方向在使用。

乌云

1.000 ft OVC 乌云密布
900 ft OVC 暂时的 乌云密布

温度 & 天气

温度 -1 °C
露点 -3 °C
相对湿度 86%
风寒 -8 °C
Kp-index 0 (0-9)

白天

日出
07:59
中午
12:35
日落
17:12 (52m)

小工具

你想在你的网站上有一个关于Nabern/Teck Airport的当前航空天气(METAR)的小部件吗?

显示HTML代码

我们和第三方通过cookies跟踪您在我们网站上的互联网行为。如果你继续,我们认为你同意我们的饼干政策